Time;durP1;ratioP1;P1;durP2;ratioP2;P2;SDS_P1;SDS_P2;PMS_P1;PMS_P2;Temp;Humidity;BMP_temperature;BMP_pressure;BME280_temperature;BME280_humidity;BME280_pressure;Samples;Min_cycle;Max_cycle;Signal;HPM_P1;HPM_P2
2021/08/11 00:00:07;;;;;;;17.37;13.93;;;16.20;99.90;;;;;;5060308;28;20505;-66
2021/08/11 00:02:34;;;;;;;16.93;13.60;;;16.20;99.90;;;;;;5063462;28;20948;-66
2021/08/11 00:05:00;;;;;;;19.93;14.77;;;16.10;99.90;;;;;;5063551;28;20812;-65
2021/08/11 00:07:27;;;;;;;19.90;14.57;;;16.10;99.90;;;;;;5062718;28;20451;-66
2021/08/11 00:09:55;;;;;;;18.87;13.80;;;16.10;99.90;;;;;;5063370;28;20464;-66
2021/08/11 00:12:23;;;;;;;16.97;12.13;;;16.00;99.90;;;;;;5062484;28;20436;-66
2021/08/11 00:14:49;;;;;;;14.40;11.83;;;16.00;99.90;;;;;;5063545;28;20447;-65
2021/08/11 00:17:16;;;;;;;16.87;11.30;;;15.90;99.90;;;;;;5061498;28;20451;-66
2021/08/11 00:19:43;;;;;;;16.07;12.00;;;15.90;99.90;;;;;;5059866;28;20460;-66
2021/08/11 00:22:10;;;;;;;17.57;12.50;;;15.90;99.90;;;;;;5059742;28;20486;-66
2021/08/11 00:24:36;;;;;;;14.73;10.17;;;15.80;99.90;;;;;;5063345;28;20458;-66
2021/08/11 00:27:03;;;;;;;15.03;13.10;;;15.80;99.90;;;;;;5061270;28;20479;-66
2021/08/11 00:29:31;;;;;;;14.40;11.33;;;15.80;99.90;;;;;;5061915;28;20471;-66
2021/08/11 00:31:58;;;;;;;16.60;11.27;;;15.70;99.90;;;;;;5062987;28;20443;-66
2021/08/11 00:34:27;;;;;;;15.80;11.70;;;15.70;99.90;;;;;;5060248;28;20443;-66
2021/08/11 00:36:54;;;;;;;15.20;10.83;;;15.70;99.90;;;;;;5060524;28;20471;-65
2021/08/11 00:39:20;;;;;;;15.90;11.37;;;15.70;99.90;;;;;;5061680;28;20464;-66
2021/08/11 00:41:47;;;;;;;18.37;12.67;;;15.60;99.90;;;;;;5062837;28;20486;-66
2021/08/11 00:44:15;;;;;;;16.00;11.00;;;15.60;99.90;;;;;;5054638;28;20444;-65
2021/08/11 00:46:43;;;;;;;16.70;11.67;;;15.50;99.90;;;;;;5064587;28;20443;-66
2021/08/11 00:49:15;;;;;;;16.00;11.77;;;15.50;99.90;;;;;;5060188;28;20472;-65
2021/08/11 00:51:43;;;;;;;17.20;12.00;;;15.50;99.90;;;;;;5062766;28;20821;-65
2021/08/11 00:54:11;;;;;;;22.60;12.93;;;15.50;99.90;;;;;;5061886;28;20447;-66
2021/08/11 00:56:39;;;;;;;15.17;12.53;;;15.40;99.90;;;;;;5068116;28;20454;-66
2021/08/11 00:59:07;;;;;;;16.20;12.20;;;15.40;99.90;;;;;;5062037;28;20486;-66
2021/08/11 01:01:37;;;;;;;18.17;13.00;;;15.40;99.90;;;;;;5059211;28;20476;-66
2021/08/11 01:04:08;;;;;;;16.00;11.67;;;15.30;99.90;;;;;;5065955;28;20447;-66
2021/08/11 01:06:37;;;;;;;18.90;14.50;;;15.30;99.90;;;;;;5052406;28;20445;-66
2021/08/11 01:09:04;;;;;;;18.73;13.70;;;15.30;99.90;;;;;;5059709;28;20468;-66
2021/08/11 01:11:31;;;;;;;20.03;14.17;;;15.30;99.90;;;;;;5051650;28;20441;-66
2021/08/11 01:13:58;;;;;;;19.60;12.67;;;15.30;99.90;;;;;;5059805;28;20454;-66
2021/08/11 01:16:25;;;;;;;22.07;13.83;;;15.30;99.90;;;;;;5059436;28;20463;-66
2021/08/11 01:18:52;;;;;;;18.60;13.77;;;15.30;99.90;;;;;;5059123;28;20833;-66
2021/08/11 01:21:30;;;;;;;16.67;12.17;;;15.30;99.90;;;;;;5060138;28;20989;-66
2021/08/11 01:24:02;;;;;;;19.73;13.07;;;15.30;99.90;;;;;;5058973;28;20996;-66
2021/08/11 01:26:54;;;;;;;17.40;12.80;;;15.30;99.90;;;;;;5055697;28;20439;-66
2021/08/11 01:29:29;;;;;;;14.40;11.30;;;15.40;99.90;;;;;;5060169;28;20974;-66
2021/08/11 01:32:00;;;;;;;19.33;13.27;;;15.40;99.90;;;;;;5058964;28;20435;-66
2021/08/11 01:34:37;;;;;;;19.50;13.83;;;15.40;99.90;;;;;;5061592;28;20442;-65
2021/08/11 01:37:08;;;;;;;20.10;12.40;;;15.40;99.90;;;;;;5062252;28;20512;-65
2021/08/11 01:39:39;;;;;;;21.60;13.40;;;15.40;99.90;;;;;;5055141;28;20467;-65
2021/08/11 01:42:08;;;;;;;18.17;11.30;;;15.50;99.90;;;;;;5062207;28;20480;-65
2021/08/11 01:44:41;;;;;;;18.60;11.53;;;15.50;99.90;;;;;;5066383;28;20443;-65
2021/08/11 01:47:12;;;;;;;21.67;13.30;;;15.50;99.90;;;;;;5065974;28;20459;-66
2021/08/11 01:49:42;;;;;;;16.50;10.47;;;15.50;99.90;;;;;;5068206;28;20459;-64
2021/08/11 01:52:10;;;;;;;13.83;11.20;;;15.50;99.90;;;;;;5061452;28;20444;-65
2021/08/11 01:54:38;;;;;;;20.00;12.53;;;15.50;99.90;;;;;;5062059;28;20833;-65
2021/08/11 01:57:06;;;;;;;19.40;13.67;;;15.50;99.90;;;;;;5063601;28;20811;-65
2021/08/11 01:59:33;;;;;;;14.90;11.73;;;15.50;99.90;;;;;;5064213;28;20470;-65
2021/08/11 02:02:01;;;;;;;14.70;10.47;;;15.50;99.90;;;;;;5066054;28;20479;-65
2021/08/11 02:04:28;;;;;;;18.80;11.73;;;15.50;99.90;;;;;;5065682;28;20446;-64
2021/08/11 02:06:57;;;;;;;13.77;11.20;;;15.40;99.90;;;;;;5060307;28;20805;-65
2021/08/11 02:09:25;;;;;;;16.23;13.13;;;15.50;99.90;;;;;;5062021;28;20470;-66
2021/08/11 02:11:52;;;;;;;20.60;16.13;;;15.50;99.90;;;;;;5067219;28;20446;-64
2021/08/11 02:14:18;;;;;;;17.10;12.83;;;15.50;99.90;;;;;;5065025;28;20500;-65
2021/08/11 02:16:45;;;;;;;15.40;10.47;;;15.40;99.90;;;;;;5066904;28;20451;-66
2021/08/11 02:19:12;;;;;;;16.40;13.10;;;15.40;99.90;;;;;;5062976;28;20468;-65
2021/08/11 02:21:40;;;;;;;18.00;11.83;;;15.40;99.90;;;;;;5065364;28;20479;-65
2021/08/11 02:24:11;;;;;;;22.47;12.83;;;15.40;99.90;;;;;;5064768;28;20450;-65
2021/08/11 02:26:46;;;;;;;17.97;12.30;;;15.30;99.90;;;;;;5065253;28;20444;-64
2021/08/11 02:29:21;;;;;;;19.07;12.70;;;15.30;99.90;;;;;;5063952;28;20848;-65
2021/08/11 02:31:55;;;;;;;19.80;13.40;;;15.30;99.90;;;;;;5061733;28;20976;-64
2021/08/11 02:34:32;;;;;;;14.57;11.80;;;15.20;99.90;;;;;;5068783;28;20452;-64
2021/08/11 02:37:03;;;;;;;13.77;11.80;;;15.20;99.90;;;;;;5061984;28;20440;-65
2021/08/11 02:39:40;;;;;;;23.47;15.37;;;15.10;99.90;;;;;;5054211;28;20460;-65
2021/08/11 02:42:10;;;;;;;22.50;13.40;;;15.10;99.90;;;;;;5061805;28;20480;-65
2021/08/11 02:44:40;;;;;;;26.73;13.90;;;15.10;99.90;;;;;;5062046;28;20478;-65
2021/08/11 02:47:08;;;;;;;15.13;11.53;;;15.10;99.90;;;;;;5061876;28;20441;-64
2021/08/11 02:49:38;;;;;;;14.40;11.83;;;15.10;99.90;;;;;;5066913;28;20475;-65
2021/08/11 02:52:05;;;;;;;19.27;13.17;;;15.00;99.90;;;;;;5068059;28;20443;-65
2021/08/11 02:54:34;;;;;;;22.73;13.37;;;15.00;99.90;;;;;;5054139;28;20946;-65
2021/08/11 02:57:02;;;;;;;23.80;14.63;;;15.00;99.90;;;;;;5062270;28;20860;-65
2021/08/11 02:59:29;;;;;;;23.00;14.50;;;15.00;99.90;;;;;;5064422;28;20829;-65
2021/08/11 03:01:56;;;;;;;25.80;16.13;;;15.10;99.90;;;;;;5064011;28;20482;-65
2021/08/11 03:04:23;;;;;;;30.13;17.13;;;15.10;99.90;;;;;;5063965;28;20440;-65
2021/08/11 03:06:50;;;;;;;45.33;20.90;;;15.00;99.90;;;;;;5064809;28;20858;-66
2021/08/11 03:09:20;;;;;;;30.20;18.37;;;15.10;99.90;;;;;;5062915;28;20467;-65
2021/08/11 03:11:49;;;;;;;37.57;19.60;;;15.00;99.90;;;;;;5064484;28;21069;-66
2021/08/11 03:14:16;;;;;;;36.30;17.43;;;15.10;99.90;;;;;;5062722;28;20451;-64
2021/08/11 03:16:43;;;;;;;33.40;17.23;;;15.10;99.90;;;;;;5061496;28;20447;-65
2021/08/11 03:19:10;;;;;;;61.03;23.47;;;15.10;99.90;;;;;;5061503;28;20472;-64
2021/08/11 03:21:38;;;;;;;34.90;18.90;;;15.10;99.90;;;;;;5064211;28;21008;-65
2021/08/11 03:24:05;;;;;;;36.00;18.70;;;15.20;99.90;;;;;;5064300;28;20447;-65
2021/08/11 03:26:32;;;;;;;44.03;20.47;;;15.20;99.90;;;;;;5051992;28;20440;-65
2021/08/11 03:29:01;;;;;;;42.77;21.63;;;15.30;99.90;;;;;;5061454;28;20475;-65
2021/08/11 03:31:27;;;;;;;42.63;21.63;;;15.40;99.90;;;;;;5063141;28;20444;-64
2021/08/11 03:33:54;;;;;;;44.77;19.13;;;15.40;99.90;;;;;;5057449;28;20514;-65
2021/08/11 03:36:21;;;;;;;46.27;20.80;;;15.50;99.90;;;;;;5068306;28;20448;-64
2021/08/11 03:38:48;;;;;;;42.33;21.17;;;15.50;99.90;;;;;;5060374;28;20464;-64
2021/08/11 03:41:15;;;;;;;55.27;20.67;;;15.60;99.90;;;;;;5061615;28;20444;-67
2021/08/11 03:43:42;;;;;;;52.57;19.07;;;15.60;99.90;;;;;;5063651;28;20447;-63
2021/08/11 03:46:10;;;;;;;50.57;20.53;;;15.70;99.90;;;;;;5063134;28;20448;-64
2021/08/11 03:48:36;;;;;;;54.53;22.40;;;15.70;99.90;;;;;;5060264;28;20468;-66
2021/08/11 03:51:03;;;;;;;77.40;25.93;;;15.80;99.90;;;;;;5060166;28;20448;-65
2021/08/11 03:53:30;;;;;;;50.37;22.67;;;15.80;99.90;;;;;;5063643;28;20446;-65
2021/08/11 03:55:57;;;;;;;62.90;22.63;;;15.80;99.90;;;;;;5057559;28;20455;-65
2021/08/11 03:58:23;;;;;;;64.03;25.23;;;15.80;99.90;;;;;;5068149;28;20471;-65
2021/08/11 04:00:51;;;;;;;36.53;19.13;;;15.90;99.90;;;;;;5059984;28;20444;-66
2021/08/11 04:03:19;;;;;;;44.80;21.97;;;16.00;99.90;;;;;;5061101;28;20483;-64
2021/08/11 04:05:46;;;;;;;81.13;26.37;;;16.00;99.90;;;;;;5063664;28;20453;-66
2021/08/11 04:08:13;;;;;;;52.47;22.00;;;16.10;99.90;;;;;;5062279;28;20781;-65
2021/08/11 04:10:39;;;;;;;81.23;24.63;;;16.10;99.90;;;;;;5060002;28;20451;-65
2021/08/11 04:13:06;;;;;;;79.83;27.70;;;16.10;99.90;;;;;;5060020;28;20506;-65
2021/08/11 04:15:33;;;;;;;52.57;25.83;;;16.20;99.90;;;;;;5060095;28;20448;-65
2021/08/11 04:17:59;;;;;;;48.17;23.23;;;16.20;99.90;;;;;;5059852;28;20558;-64
2021/08/11 04:20:27;;;;;;;94.57;28.90;;;16.30;99.90;;;;;;5062804;28;20443;-65
2021/08/11 04:22:54;;;;;;;44.67;20.97;;;16.30;99.90;;;;;;5063038;28;20484;-65
2021/08/11 04:25:22;;;;;;;50.27;23.03;;;16.30;99.90;;;;;;5057783;28;20451;-66
2021/08/11 04:27:49;;;;;;;36.20;19.60;;;16.30;99.90;;;;;;5051362;28;20520;-65
2021/08/11 04:30:15;;;;;;;41.27;19.73;;;16.30;99.90;;;;;;5050008;28;20459;-65
2021/08/11 04:32:42;;;;;;;69.37;23.13;;;16.40;99.90;;;;;;5048224;28;20440;-65
2021/08/11 04:35:11;;;;;;;66.77;23.37;;;16.40;99.90;;;;;;5047354;28;20449;-66
2021/08/11 04:37:40;;;;;;;73.33;26.80;;;16.40;99.90;;;;;;5050283;28;20449;-66
2021/08/11 04:40:09;;;;;;;56.53;20.77;;;16.40;99.90;;;;;;5049873;28;20462;-65
2021/08/11 04:42:36;;;;;;;60.27;22.60;;;16.50;99.90;;;;;;5050000;28;20486;-66
2021/08/11 04:45:03;;;;;;;64.93;22.30;;;16.50;99.90;;;;;;5050035;28;20447;-64
2021/08/11 04:47:30;;;;;;;61.37;23.67;;;16.60;99.90;;;;;;5051245;28;20926;-65
2021/08/11 04:49:56;;;;;;;47.27;21.57;;;16.60;99.90;;;;;;5052424;28;20478;-63
2021/08/11 04:52:23;;;;;;;48.40;22.80;;;16.60;99.90;;;;;;5049331;28;20444;-65
2021/08/11 04:54:51;;;;;;;53.93;23.27;;;16.70;99.90;;;;;;5048722;28;20507;-64
2021/08/11 04:57:18;;;;;;;57.00;25.07;;;16.70;99.90;;;;;;5050212;28;20455;-64
2021/08/11 04:59:45;;;;;;;96.60;28.60;;;16.80;99.90;;;;;;5058893;22;20488;-67
2021/08/11 05:02:11;;;;;;;88.53;27.50;;;16.90;99.90;;;;;;5031082;28;21015;-68
2021/08/11 05:04:39;;;;;;;79.63;25.40;;;16.90;99.90;;;;;;5027299;28;20452;-68
2021/08/11 05:07:07;;;;;;;51.07;22.83;;;17.00;99.90;;;;;;5027594;28;20460;-67
2021/08/11 05:09:33;;;;;;;47.93;23.70;;;17.00;99.90;;;;;;5030819;28;20479;-68
2021/08/11 05:12:01;;;;;;;49.47;23.23;;;17.10;99.90;;;;;;5030482;28;20907;-67
2021/08/11 05:14:29;;;;;;;49.63;22.47;;;17.10;99.90;;;;;;5031094;28;20448;-67
2021/08/11 05:16:55;;;;;;;72.10;24.80;;;17.20;99.90;;;;;;5031542;28;20453;-66
2021/08/11 05:19:22;;;;;;;47.73;22.23;;;17.30;99.90;;;;;;5032643;28;20475;-67
2021/08/11 05:21:50;;;;;;;67.43;28.20;;;17.40;99.90;;;;;;5031106;28;20445;-64
2021/08/11 05:24:17;;;;;;;43.87;23.80;;;17.50;99.90;;;;;;5033432;28;21243;-67
2021/08/11 05:26:45;;;;;;;49.57;24.93;;;17.60;99.90;;;;;;5036617;28;20445;-67
2021/08/11 05:29:14;;;;;;;47.27;22.17;;;17.60;99.90;;;;;;5032798;28;20562;-67
2021/08/11 05:31:41;;;;;;;64.10;23.13;;;17.60;99.90;;;;;;5034901;28;20451;-68
2021/08/11 05:34:08;;;;;;;45.00;20.60;;;17.60;99.90;;;;;;5034314;28;20455;-67
2021/08/11 05:36:35;;;;;;;41.07;19.43;;;17.60;99.90;;;;;;5035944;28;21078;-67
2021/08/11 05:39:02;;;;;;;35.17;19.50;;;17.60;99.90;;;;;;5034687;28;20478;-67
2021/08/11 05:41:29;;;;;;;43.30;21.53;;;17.60;99.90;;;;;;5034713;28;20444;-68
2021/08/11 05:43:56;;;;;;;36.57;19.43;;;17.60;99.90;;;;;;5034870;28;20479;-67
2021/08/11 05:46:24;;;;;;;43.47;19.50;;;17.60;99.90;;;;;;5032742;28;20447;-67
2021/08/11 05:48:50;;;;;;;33.93;19.70;;;17.60;99.90;;;;;;5031173;28;20480;-66
2021/08/11 05:51:17;;;;;;;34.73;17.57;;;17.60;99.90;;;;;;5033083;28;20448;-66
2021/08/11 05:53:44;;;;;;;38.40;17.50;;;17.70;99.90;;;;;;5034715;28;20440;-67
2021/08/11 05:56:10;;;;;;;37.03;20.93;;;17.70;99.90;;;;;;5027745;28;20464;-67
2021/08/11 05:58:37;;;;;;;32.63;19.17;;;17.80;99.90;;;;;;5034383;28;20471;-66
2021/08/11 06:01:04;;;;;;;28.57;17.37;;;17.90;99.90;;;;;;5034690;28;20448;-68
2021/08/11 06:03:32;;;;;;;42.93;17.83;;;18.00;99.90;;;;;;5026371;28;20479;-67
2021/08/11 06:05:58;;;;;;;32.70;19.30;;;18.10;99.90;;;;;;5035222;28;20460;-67
2021/08/11 06:08:25;;;;;;;33.53;20.40;;;18.30;99.90;;;;;;5034119;28;20463;-68
2021/08/11 06:10:52;;;;;;;26.90;18.00;;;18.50;99.90;;;;;;5034424;28;21164;-68
2021/08/11 06:13:18;;;;;;;25.03;18.03;;;18.60;99.90;;;;;;5032316;28;20448;-68
2021/08/11 06:15:46;;;;;;;23.80;19.23;;;18.60;99.90;;;;;;5028902;28;20451;-67
2021/08/11 06:18:16;;;;;;;23.53;18.37;;;18.50;99.90;;;;;;5033224;28;20492;-68
2021/08/11 06:20:47;;;;;;;48.23;18.90;;;18.60;99.90;;;;;;5030986;28;20453;-66
2021/08/11 06:23:13;;;;;;;25.90;18.43;;;18.50;99.90;;;;;;5030898;28;21081;-67
2021/08/11 06:25:40;;;;;;;28.30;21.03;;;18.60;99.90;;;;;;5029933;28;20449;-67
2021/08/11 06:28:07;;;;;;;28.90;19.77;;;18.70;99.90;;;;;;5031006;28;20464;-69
2021/08/11 06:30:34;;;;;;;28.70;20.37;;;18.70;99.90;;;;;;5033915;28;20472;-67
2021/08/11 06:33:00;;;;;;;27.73;20.77;;;18.90;99.90;;;;;;5034077;28;20460;-67
2021/08/11 06:35:27;;;;;;;30.07;22.07;;;18.90;99.90;;;;;;5033350;28;20455;-68
2021/08/11 06:37:55;;;;;;;37.57;20.40;;;19.00;99.90;;;;;;5033615;28;20981;-68
2021/08/11 06:40:22;;;;;;;24.50;20.30;;;19.00;99.90;;;;;;5037249;28;20468;-67
2021/08/11 06:42:50;;;;;;;28.60;21.77;;;19.10;99.90;;;;;;5030191;28;20495;-68
2021/08/11 06:45:17;;;;;;;25.50;22.43;;;19.30;99.90;;;;;;5031430;28;20453;-67
2021/08/11 06:47:44;;;;;;;21.30;19.03;;;19.40;99.90;;;;;;5030423;28;20476;-69
2021/08/11 06:50:13;;;;;;;25.90;21.77;;;19.90;99.90;;;;;;5031059;28;20527;-68
2021/08/11 06:52:39;;;;;;;25.50;22.50;;;20.10;99.90;;;;;;5033539;28;20444;-67
2021/08/11 06:55:10;;;;;;;29.50;23.20;;;20.20;99.90;;;;;;5033260;28;20452;-69
2021/08/11 06:57:37;;;;;;;26.37;23.60;;;20.20;99.90;;;;;;5023630;28;20453;-68
2021/08/11 07:00:06;;;;;;;26.77;23.97;;;20.10;99.90;;;;;;5029841;28;20484;-69
2021/08/11 07:02:33;;;;;;;31.27;24.83;;;20.20;99.90;;;;;;5034284;28;20499;-68
2021/08/11 07:05:00;;;;;;;28.60;25.10;;;20.20;99.90;;;;;;5025689;28;21098;-67
2021/08/11 07:07:27;;;;;;;29.57;24.13;;;20.20;99.90;;;;;;5031341;28;20460;-68
2021/08/11 07:09:55;;;;;;;27.53;23.53;;;20.40;99.90;;;;;;5030004;28;20480;-66
2021/08/11 07:12:23;;;;;;;29.53;26.33;;;20.40;99.90;;;;;;5032340;28;20461;-66
2021/08/11 07:14:52;;;;;;;30.87;26.40;;;20.40;99.90;;;;;;5033245;28;20453;-67
2021/08/11 07:17:19;;;;;;;28.97;26.03;;;20.20;99.90;;;;;;5030917;28;20530;-67
2021/08/11 07:19:46;;;;;;;28.27;25.30;;;20.20;99.90;;;;;;5030227;28;20956;-68
2021/08/11 07:22:14;;;;;;;24.20;22.00;;;20.20;99.90;;;;;;5030882;28;20453;-71
2021/08/11 07:24:42;;;;;;;29.00;26.10;;;20.40;99.90;;;;;;5033464;28;20448;-70
2021/08/11 07:27:10;;;;;;;30.23;26.30;;;20.50;99.90;;;;;;5031685;28;21140;-70
2021/08/11 07:29:42;;;;;;;26.93;24.40;;;20.60;99.90;;;;;;5031710;28;20464;-69
2021/08/11 07:32:10;;;;;;;28.00;25.50;;;20.70;99.90;;;;;;5032310;28;20460;-69
2021/08/11 07:34:37;;;;;;;28.93;26.10;;;20.60;99.90;;;;;;5030074;28;20481;-69
2021/08/11 07:37:04;;;;;;;29.70;26.90;;;20.70;99.90;;;;;;5036490;28;20534;-71
2021/08/11 07:39:31;;;;;;;31.00;27.80;;;20.80;99.90;;;;;;5029723;28;20464;-69
2021/08/11 07:41:58;;;;;;;31.37;28.40;;;21.00;99.90;;;;;;5029678;28;20460;-70
2021/08/11 07:44:25;;;;;;;27.70;25.10;;;21.10;99.90;;;;;;5037348;28;20489;-70
2021/08/11 07:46:53;;;;;;;30.00;27.13;;;21.20;99.90;;;;;;5029794;28;20464;-70
2021/08/11 07:49:20;;;;;;;28.97;26.43;;;21.30;99.90;;;;;;5031468;28;20469;-69
2021/08/11 07:51:46;;;;;;;33.00;30.00;;;21.50;99.90;;;;;;5026481;28;20459;-69
2021/08/11 07:54:13;;;;;;;31.13;28.43;;;21.80;99.90;;;;;;5036032;28;20448;-69
2021/08/11 07:56:40;;;;;;;31.70;28.70;;;22.00;99.90;;;;;;5026945;28;20895;-69
2021/08/11 07:59:07;;;;;;;34.93;31.73;;;22.00;99.90;;;;;;5032120;28;21282;-69
2021/08/11 08:01:33;;;;;;;33.27;29.90;;;21.90;99.90;;;;;;5032279;28;21013;-70
2021/08/11 08:04:02;;;;;;;37.43;34.10;;;21.90;99.90;;;;;;5032336;28;20491;-69
2021/08/11 08:06:28;;;;;;;38.20;34.70;;;22.00;99.90;;;;;;5030252;28;20614;-69
2021/08/11 08:08:55;;;;;;;33.90;31.00;;;22.10;99.90;;;;;;5029169;28;20488;-70
2021/08/11 08:11:22;;;;;;;39.63;35.73;;;22.10;99.90;;;;;;5029283;28;21305;-69
2021/08/11 08:13:49;;;;;;;37.50;34.00;;;22.10;99.90;;;;;;5028537;28;20492;-70
2021/08/11 08:16:16;;;;;;;40.60;36.70;;;22.40;99.90;;;;;;5030485;28;20958;-70
2021/08/11 08:18:43;;;;;;;39.97;36.37;;;22.80;99.90;;;;;;5034635;28;20484;-69
2021/08/11 08:21:11;;;;;;;40.40;36.50;;;23.10;99.90;;;;;;5028922;28;20448;-69
2021/08/11 08:23:38;;;;;;;42.10;38.33;;;23.40;99.90;;;;;;5032127;28;20487;-68
2021/08/11 08:26:05;;;;;;;41.83;38.03;;;23.80;99.90;;;;;;5031316;28;21016;-69
2021/08/11 08:28:32;;;;;;;42.57;38.67;;;24.00;99.90;;;;;;5036191;28;20457;-70
2021/08/11 08:30:59;;;;;;;42.87;39.07;;;24.00;99.90;;;;;;5028373;28;20455;-70
2021/08/11 08:33:25;;;;;;;43.40;39.60;;;24.00;99.90;;;;;;5038805;28;20906;-68
2021/08/11 08:35:52;;;;;;;41.13;37.60;;;24.00;99.90;;;;;;5035175;28;20459;-70
2021/08/11 08:38:20;;;;;;;47.93;43.57;;;24.10;99.90;;;;;;5029603;28;20488;-68
2021/08/11 08:40:47;;;;;;;45.00;40.87;;;24.40;99.90;;;;;;5028261;28;20538;-66
2021/08/11 08:43:15;;;;;;;44.77;40.63;;;24.20;99.90;;;;;;5029365;28;20939;-69
2021/08/11 08:45:45;;;;;;;41.00;37.30;;;24.00;99.90;;;;;;5032116;28;20936;-67
2021/08/11 08:48:12;;;;;;;45.43;40.97;;;23.70;99.90;;;;;;5030264;28;21289;-66
2021/08/11 08:50:40;;;;;;;43.40;39.70;;;23.50;99.90;;;;;;5021900;28;20475;-65
2021/08/11 08:53:08;;;;;;;42.90;39.00;;;23.50;99.90;;;;;;5029094;28;20444;-66
2021/08/11 08:55:37;;;;;;;39.70;36.30;;;23.70;99.90;;;;;;5022133;28;20453;-69
2021/08/11 08:58:04;;;;;;;41.90;38.23;;;23.60;99.90;;;;;;5028912;28;20488;-65
2021/08/11 09:00:31;;;;;;;41.90;38.30;;;23.70;99.90;;;;;;5027864;28;20472;-69
2021/08/11 09:02:58;;;;;;;40.10;36.70;;;23.60;99.90;;;;;;5027836;28;20460;-67
2021/08/11 09:05:26;;;;;;;42.90;39.20;;;23.60;99.90;;;;;;5035962;28;21231;-67
2021/08/11 09:07:53;;;;;;;41.33;37.90;;;23.80;99.90;;;;;;5027082;28;20479;-66
2021/08/11 09:10:22;;;;;;;40.63;37.13;;;24.10;99.90;;;;;;5023642;28;20900;-68
2021/08/11 09:12:54;;;;;;;38.77;35.67;;;24.10;99.90;;;;;;5031481;28;20483;-67
2021/08/11 09:15:32;;;;;;;41.73;38.10;;;24.10;99.90;;;;;;5029095;28;20445;-66
2021/08/11 09:17:59;;;;;;;37.70;34.70;;;24.50;99.90;;;;;;5028002;28;20455;-67
2021/08/11 09:20:28;;;;;;;38.63;35.57;;;24.90;99.90;;;;;;5028233;28;20461;-67
2021/08/11 09:22:56;;;;;;;39.65;36.65;;;25.10;99.90;;;;;;5027523;28;20449;-66
2021/08/11 09:25:24;;;;;;;41.13;37.97;;;25.70;99.90;;;;;;5028605;28;20483;-67
2021/08/11 09:27:52;;;;;;;39.93;36.80;;;26.10;99.90;;;;;;5027793;28;20514;-68
2021/08/11 09:30:19;;;;;;;39.87;36.70;;;26.50;99.90;;;;;;5027009;28;20473;-68
2021/08/11 09:32:51;;;;;;;36.87;34.13;;;26.70;99.90;;;;;;5038252;28;20464;-67
2021/08/11 09:35:21;;;;;;;36.63;33.87;;;26.90;99.90;;;;;;5028977;28;20447;-67
2021/08/11 09:37:48;;;;;;;41.33;38.10;;;27.00;99.90;;;;;;5027948;28;20449;-66
2021/08/11 09:40:17;;;;;;;40.03;37.13;;;27.10;99.90;;;;;;5029273;28;20473;-66
2021/08/11 09:42:45;;;;;;;35.70;33.30;;;27.20;99.90;;;;;;5031001;28;20510;-65
2021/08/11 09:45:15;;;;;;;36.87;34.37;;;27.30;99.90;;;;;;5029767;28;20487;-67
2021/08/11 09:47:54;;;;;;;37.40;34.60;;;27.20;99.90;;;;;;5028050;28;20472;-66
2021/08/11 09:50:37;;;;;;;35.73;33.07;;;27.20;99.90;;;;;;5027709;28;21010;-65
2021/08/11 09:53:04;;;;;;;33.07;30.67;;;27.10;99.90;;;;;;5027482;28;20460;-68
2021/08/11 09:55:30;;;;;;;34.10;31.60;;;27.00;99.90;;;;;;5022482;28;20829;-64
2021/08/11 09:57:57;;;;;;;31.77;29.70;;;26.90;99.90;;;;;;5030979;28;20457;-65
2021/08/11 10:00:39;;;;;;;32.23;29.83;;;26.90;99.90;;;;;;5029395;28;20561;-68
2021/08/11 10:03:05;;;;;;;32.67;30.60;;;26.80;99.90;;;;;;5031278;28;20531;-64
2021/08/11 10:05:34;;;;;;;32.63;30.40;;;26.60;99.90;;;;;;5034338;28;20444;-67
2021/08/11 10:08:01;;;;;;;31.07;28.87;;;26.60;99.90;;;;;;5034692;28;20539;-65
2021/08/11 10:10:28;;;;;;;32.33;30.27;;;26.70;99.90;;;;;;5031434;28;21136;-69
2021/08/11 10:12:55;;;;;;;32.37;30.27;;;26.20;99.90;;;;;;5031102;28;20460;-67
2021/08/11 10:15:23;;;;;;;30.30;28.40;;;26.20;99.90;;;;;;5033437;28;20445;-68
2021/08/11 10:17:53;;;;;;;30.30;28.20;;;26.10;99.90;;;;;;5036274;28;20479;-67
2021/08/11 10:20:22;;;;;;;27.83;26.10;;;26.10;99.90;;;;;;5033036;28;20484;-65
2021/08/11 10:22:49;;;;;;;27.60;25.90;;;26.00;99.90;;;;;;5034325;28;20455;-68
2021/08/11 10:25:16;;;;;;;26.30;24.60;;;26.10;99.90;;;;;;5032684;28;20613;-67
2021/08/11 10:27:45;;;;;;;25.33;24.00;;;26.40;99.90;;;;;;5034142;28;20452;-68
2021/08/11 10:30:14;;;;;;;26.83;25.23;;;26.80;99.90;;;;;;5032992;28;20476;-67
2021/08/11 10:32:41;;;;;;;26.83;25.23;;;27.10;99.90;;;;;;5035084;28;21246;-66
2021/08/11 10:35:10;;;;;;;27.30;25.80;;;27.30;99.90;;;;;;5033245;28;20452;-66
2021/08/11 10:37:39;;;;;;;26.90;25.50;;;27.20;99.40;;;;;;5030536;28;20453;-67
2021/08/11 10:40:07;;;;;;;26.67;25.13;;;27.50;99.10;;;;;;5030631;28;21048;-66
2021/08/11 10:42:34;;;;;;;27.60;26.20;;;27.70;98.70;;;;;;5030344;28;20456;-69
2021/08/11 10:45:01;;;;;;;28.03;26.53;;;27.90;98.10;;;;;;5031006;28;20480;-70
2021/08/11 10:47:30;;;;;;;25.13;23.90;;;28.10;98.00;;;;;;5033463;28;20455;-69
2021/08/11 10:49:58;;;;;;;25.90;24.37;;;28.70;96.60;;;;;;5034237;28;20471;-66
2021/08/11 10:52:27;;;;;;;25.53;24.23;;;29.00;94.40;;;;;;5030724;28;20449;-66
2021/08/11 10:54:55;;;;;;;25.10;23.70;;;29.20;93.90;;;;;;5029713;28;20458;-67
2021/08/11 10:57:44;;;;;;;23.97;22.77;;;29.00;93.30;;;;;;5029735;28;20459;-66
2021/08/11 11:00:28;;;;;;;23.87;22.73;;;29.40;93.50;;;;;;5074366;22;20522;-64
2021/08/11 11:02:55;;;;;;;26.40;25.10;;;29.50;92.80;;;;;;5068167;28;20456;-63
2021/08/11 11:06:02;;;;;;;23.90;22.53;;;29.90;90.70;;;;;;5060524;28;20866;-63
2021/08/11 11:08:34;;;;;;;25.33;24.17;;;30.10;87.60;;;;;;5060551;28;20443;-63
2021/08/11 11:11:39;;;;;;;25.67;24.47;;;30.50;86.20;;;;;;5032386;28;20480;-63
2021/08/11 11:14:08;;;;;;;24.00;22.90;;;30.70;82.80;;;;;;5032513;28;20450;-63
2021/08/11 11:17:12;;;;;;;24.93;23.73;;;30.40;80.60;;;;;;5029215;28;21001;-63
2021/08/11 11:20:24;;;;;;;25.33;24.13;;;31.10;78.90;;;;;;5026331;28;20467;-63
2021/08/11 11:22:54;;;;;;;25.23;24.13;;;31.60;72.70;;;;;;5032921;28;20447;-63
2021/08/11 11:26:09;;;;;;;25.03;23.90;;;31.90;69.80;;;;;;5031601;28;20490;-64
2021/08/11 11:28:53;;;;;;;25.53;24.33;;;32.00;68.30;;;;;;5026569;28;20456;-64
2021/08/11 11:31:46;;;;;;;25.23;24.03;;;32.40;68.10;;;;;;5031395;28;20451;-64
2021/08/11 11:34:24;;;;;;;23.23;22.30;;;32.90;63.40;;;;;;5026020;28;20445;-64
2021/08/11 11:37:23;;;;;;;24.53;23.13;;;32.50;59.30;;;;;;5032911;28;21112;-64
2021/08/11 11:40:21;;;;;;;23.03;22.03;;;31.80;59.70;;;;;;5027845;28;20460;-64
2021/08/11 11:42:50;;;;;;;21.80;20.90;;;31.70;61.40;;;;;;5034372;28;20451;-63
2021/08/11 11:45:45;;;;;;;22.43;21.53;;;31.60;62.90;;;;;;5030357;28;20479;-64
2021/08/11 11:48:13;;;;;;;21.80;20.87;;;31.30;61.60;;;;;;5035237;28;20546;-64
2021/08/11 11:50:48;;;;;;;23.33;21.33;;;32.50;57.50;;;;;;5028866;28;20572;-64
2021/08/11 11:53:30;;;;;;;21.13;20.23;;;32.00;56.20;;;;;;5030480;28;20511;-64
2021/08/11 11:55:57;;;;;;;22.70;21.53;;;31.00;58.30;;;;;;5036801;28;21152;-63
2021/08/11 11:58:25;;;;;;;20.73;20.00;;;30.30;61.20;;;;;;5031471;28;21307;-64
2021/08/11 12:01:01;;;;;;;21.67;20.87;;;30.60;63.30;;;;;;5031960;28;20977;-64
2021/08/11 12:03:39;;;;;;;22.77;21.87;;;32.30;59.90;;;;;;5039713;28;21015;-63
2021/08/11 12:06:07;;;;;;;21.30;20.50;;;31.60;57.90;;;;;;5032043;28;20455;-63
2021/08/11 12:08:37;;;;;;;21.00;20.20;;;31.00;60.30;;;;;;5032916;28;20447;-63
2021/08/11 12:11:08;;;;;;;20.80;20.10;;;31.00;59.40;;;;;;5026262;28;20452;-64
2021/08/11 12:13:43;;;;;;;21.37;20.37;;;31.00;58.60;;;;;;5029621;28;20472;-64
2021/08/11 12:16:12;;;;;;;21.33;20.53;;;31.70;59.20;;;;;;5024949;28;20447;-64
2021/08/11 12:18:41;;;;;;;22.10;21.23;;;34.40;52.30;;;;;;5037938;28;20452;-64
2021/08/11 12:21:09;;;;;;;21.53;20.73;;;34.80;50.00;;;;;;5035826;28;20452;-63
2021/08/11 12:23:36;;;;;;;21.45;20.55;;;38.30;44.30;;;;;;5026778;28;20198;-62
2021/08/11 12:26:04;;;;;;;22.23;21.33;;;39.80;40.00;;;;;;5034875;28;20221;-64
2021/08/11 12:28:35;;;;;;;21.70;20.92;;;39.70;37.80;;;;;;5028633;28;20202;-64
2021/08/11 12:31:06;;;;;;;22.88;21.77;;;39.70;37.90;;;;;;5028312;28;20222;-62
2021/08/11 12:33:36;;;;;;;21.98;21.17;;;41.30;35.80;;;;;;5025681;28;20213;-64
2021/08/11 12:36:05;;;;;;;22.35;21.45;;;40.80;34.60;;;;;;5031659;28;20228;-64
2021/08/11 12:38:35;;;;;;;21.95;21.15;;;41.80;34.10;;;;;;5033717;28;20296;-64